sensor_id;sensor_type;location;lat;lon;timestamp;P1;durP1;ratioP1;P2;durP2;ratioP2
2638;SDS011;1329;51.384;7.122;2024-03-07T00:00:25;36.03;;;25.73;;
2638;SDS011;1329;51.384;7.122;2024-03-07T00:02:54;34.90;;;25.60;;
2638;SDS011;1329;51.384;7.122;2024-03-07T00:05:21;34.97;;;25.27;;
2638;SDS011;1329;51.384;7.122;2024-03-07T00:07:49;35.77;;;25.97;;
2638;SDS011;1329;51.384;7.122;2024-03-07T00:10:16;33.70;;;26.03;;
2638;SDS011;1329;51.384;7.122;2024-03-07T00:12:44;34.27;;;25.63;;
2638;SDS011;1329;51.384;7.122;2024-03-07T00:15:13;34.57;;;26.70;;
2638;SDS011;1329;51.384;7.122;2024-03-07T00:17:40;33.13;;;25.43;;
2638;SDS011;1329;51.384;7.122;2024-03-07T00:20:10;31.20;;;24.47;;
2638;SDS011;1329;51.384;7.122;2024-03-07T00:22:40;33.37;;;25.50;;
2638;SDS011;1329;51.384;7.122;2024-03-07T00:25:07;37.10;;;25.77;;
2638;SDS011;1329;51.384;7.122;2024-03-07T00:27:36;35.83;;;25.90;;
2638;SDS011;1329;51.384;7.122;2024-03-07T00:30:04;36.33;;;26.40;;
2638;SDS011;1329;51.384;7.122;2024-03-07T00:32:34;37.00;;;26.17;;
2638;SDS011;1329;51.384;7.122;2024-03-07T00:35:04;34.87;;;26.27;;
2638;SDS011;1329;51.384;7.122;2024-03-07T00:37:35;36.10;;;24.83;;
2638;SDS011;1329;51.384;7.122;2024-03-07T00:40:02;33.63;;;24.77;;
2638;SDS011;1329;51.384;7.122;2024-03-07T00:42:29;34.43;;;25.87;;
2638;SDS011;1329;51.384;7.122;2024-03-07T00:44:56;33.77;;;25.43;;
2638;SDS011;1329;51.384;7.122;2024-03-07T00:47:23;34.03;;;26.40;;
2638;SDS011;1329;51.384;7.122;2024-03-07T00:49:50;35.93;;;27.50;;
2638;SDS011;1329;51.384;7.122;2024-03-07T00:52:17;34.70;;;26.00;;
2638;SDS011;1329;51.384;7.122;2024-03-07T00:54:46;35.67;;;25.83;;
2638;SDS011;1329;51.384;7.122;2024-03-07T00:57:12;36.17;;;26.30;;
2638;SDS011;1329;51.384;7.122;2024-03-07T00:59:39;35.03;;;26.67;;
2638;SDS011;1329;51.384;7.122;2024-03-07T01:02:06;36.33;;;27.37;;
2638;SDS011;1329;51.384;7.122;2024-03-07T01:04:33;35.37;;;26.97;;
2638;SDS011;1329;51.384;7.122;2024-03-07T01:07:03;36.53;;;27.47;;
2638;SDS011;1329;51.384;7.122;2024-03-07T01:09:30;40.20;;;28.23;;
2638;SDS011;1329;51.384;7.122;2024-03-07T01:11:58;40.37;;;27.57;;
2638;SDS011;1329;51.384;7.122;2024-03-07T01:14:28;40.37;;;28.37;;
2638;SDS011;1329;51.384;7.122;2024-03-07T01:16:56;38.77;;;28.23;;
2638;SDS011;1329;51.384;7.122;2024-03-07T01:19:23;36.97;;;28.07;;
2638;SDS011;1329;51.384;7.122;2024-03-07T01:21:50;36.03;;;27.63;;
2638;SDS011;1329;51.384;7.122;2024-03-07T01:24:17;38.33;;;28.20;;
2638;SDS011;1329;51.384;7.122;2024-03-07T01:26:45;41.07;;;28.50;;
2638;SDS011;1329;51.384;7.122;2024-03-07T01:29:14;39.27;;;28.37;;
2638;SDS011;1329;51.384;7.122;2024-03-07T01:31:41;37.93;;;27.63;;
2638;SDS011;1329;51.384;7.122;2024-03-07T01:34:08;39.57;;;28.77;;
2638;SDS011;1329;51.384;7.122;2024-03-07T01:36:35;40.83;;;28.17;;
2638;SDS011;1329;51.384;7.122;2024-03-07T01:39:02;39.67;;;28.43;;
2638;SDS011;1329;51.384;7.122;2024-03-07T01:41:29;44.27;;;29.37;;
2638;SDS011;1329;51.384;7.122;2024-03-07T01:43:56;43.90;;;30.73;;
2638;SDS011;1329;51.384;7.122;2024-03-07T01:46:24;44.13;;;30.10;;
2638;SDS011;1329;51.384;7.122;2024-03-07T01:48:51;44.37;;;30.67;;
2638;SDS011;1329;51.384;7.122;2024-03-07T01:51:18;39.40;;;29.17;;
2638;SDS011;1329;51.384;7.122;2024-03-07T01:53:46;43.80;;;29.70;;
2638;SDS011;1329;51.384;7.122;2024-03-07T01:56:13;53.00;;;34.70;;
2638;SDS011;1329;51.384;7.122;2024-03-07T01:58:41;51.47;;;34.50;;
2638;SDS011;1329;51.384;7.122;2024-03-07T02:01:09;46.43;;;32.07;;
2638;SDS011;1329;51.384;7.122;2024-03-07T02:03:40;51.43;;;33.63;;
2638;SDS011;1329;51.384;7.122;2024-03-07T02:06:08;53.00;;;33.90;;
2638;SDS011;1329;51.384;7.122;2024-03-07T02:08:35;47.43;;;31.67;;
2638;SDS011;1329;51.384;7.122;2024-03-07T02:11:02;49.03;;;33.83;;
2638;SDS011;1329;51.384;7.122;2024-03-07T02:13:29;49.07;;;33.73;;
2638;SDS011;1329;51.384;7.122;2024-03-07T02:15:56;51.77;;;33.80;;
2638;SDS011;1329;51.384;7.122;2024-03-07T02:18:24;51.93;;;33.63;;
2638;SDS011;1329;51.384;7.122;2024-03-07T02:20:52;47.90;;;33.10;;
2638;SDS011;1329;51.384;7.122;2024-03-07T02:23:20;46.73;;;32.93;;
2638;SDS011;1329;51.384;7.122;2024-03-07T02:25:47;50.43;;;32.73;;
2638;SDS011;1329;51.384;7.122;2024-03-07T02:28:14;51.63;;;33.87;;
2638;SDS011;1329;51.384;7.122;2024-03-07T02:30:41;44.93;;;33.07;;
2638;SDS011;1329;51.384;7.122;2024-03-07T02:33:07;47.87;;;31.63;;
2638;SDS011;1329;51.384;7.122;2024-03-07T02:35:40;45.47;;;30.70;;
2638;SDS011;1329;51.384;7.122;2024-03-07T02:38:09;42.70;;;30.37;;
2638;SDS011;1329;51.384;7.122;2024-03-07T02:40:36;46.77;;;30.60;;
2638;SDS011;1329;51.384;7.122;2024-03-07T02:43:03;53.53;;;30.70;;
2638;SDS011;1329;51.384;7.122;2024-03-07T02:45:32;39.93;;;28.87;;
2638;SDS011;1329;51.384;7.122;2024-03-07T02:47:59;39.13;;;29.03;;
2638;SDS011;1329;51.384;7.122;2024-03-07T02:50:26;46.27;;;31.23;;
2638;SDS011;1329;51.384;7.122;2024-03-07T02:52:53;43.13;;;30.83;;
2638;SDS011;1329;51.384;7.122;2024-03-07T02:55:21;51.70;;;31.07;;
2638;SDS011;1329;51.384;7.122;2024-03-07T02:57:48;48.67;;;30.90;;
2638;SDS011;1329;51.384;7.122;2024-03-07T03:00:15;43.30;;;30.30;;
2638;SDS011;1329;51.384;7.122;2024-03-07T03:02:48;44.63;;;30.13;;
2638;SDS011;1329;51.384;7.122;2024-03-07T03:05:18;46.87;;;30.43;;
2638;SDS011;1329;51.384;7.122;2024-03-07T03:10:44;44.87;;;31.03;;
2638;SDS011;1329;51.384;7.122;2024-03-07T03:13:11;41.43;;;30.80;;
2638;SDS011;1329;51.384;7.122;2024-03-07T03:15:38;39.73;;;29.53;;
2638;SDS011;1329;51.384;7.122;2024-03-07T03:18:05;40.23;;;30.27;;
2638;SDS011;1329;51.384;7.122;2024-03-07T03:20:32;43.30;;;30.80;;
2638;SDS011;1329;51.384;7.122;2024-03-07T03:23:04;45.97;;;31.17;;
2638;SDS011;1329;51.384;7.122;2024-03-07T03:25:36;43.10;;;30.50;;
2638;SDS011;1329;51.384;7.122;2024-03-07T03:28:05;42.47;;;30.23;;
2638;SDS011;1329;51.384;7.122;2024-03-07T03:30:34;40.63;;;30.40;;
2638;SDS011;1329;51.384;7.122;2024-03-07T03:33:03;44.57;;;30.53;;
2638;SDS011;1329;51.384;7.122;2024-03-07T03:35:30;62.77;;;32.27;;
2638;SDS011;1329;51.384;7.122;2024-03-07T03:37:58;43.47;;;29.70;;
2638;SDS011;1329;51.384;7.122;2024-03-07T03:40:26;41.07;;;29.70;;
2638;SDS011;1329;51.384;7.122;2024-03-07T03:42:53;46.13;;;30.80;;
2638;SDS011;1329;51.384;7.122;2024-03-07T03:45:21;50.97;;;29.93;;
2638;SDS011;1329;51.384;7.122;2024-03-07T03:47:50;43.07;;;29.97;;
2638;SDS011;1329;51.384;7.122;2024-03-07T03:50:17;47.17;;;30.40;;
2638;SDS011;1329;51.384;7.122;2024-03-07T03:52:44;49.93;;;32.67;;
2638;SDS011;1329;51.384;7.122;2024-03-07T03:55:11;51.10;;;31.03;;
2638;SDS011;1329;51.384;7.122;2024-03-07T03:57:39;52.23;;;29.70;;
2638;SDS011;1329;51.384;7.122;2024-03-07T04:00:08;38.93;;;28.70;;
2638;SDS011;1329;51.384;7.122;2024-03-07T04:02:40;44.20;;;28.63;;
2638;SDS011;1329;51.384;7.122;2024-03-07T04:05:07;52.47;;;30.73;;
2638;SDS011;1329;51.384;7.122;2024-03-07T04:07:35;42.67;;;29.90;;
2638;SDS011;1329;51.384;7.122;2024-03-07T04:10:03;52.13;;;28.70;;
2638;SDS011;1329;51.384;7.122;2024-03-07T04:12:32;42.27;;;30.27;;
2638;SDS011;1329;51.384;7.122;2024-03-07T04:15:00;43.33;;;29.63;;
2638;SDS011;1329;51.384;7.122;2024-03-07T04:17:28;44.43;;;30.90;;
2638;SDS011;1329;51.384;7.122;2024-03-07T04:19:58;49.23;;;31.07;;
2638;SDS011;1329;51.384;7.122;2024-03-07T04:22:25;39.80;;;29.03;;
2638;SDS011;1329;51.384;7.122;2024-03-07T04:24:52;46.43;;;29.93;;
2638;SDS011;1329;51.384;7.122;2024-03-07T04:27:20;40.07;;;29.43;;
2638;SDS011;1329;51.384;7.122;2024-03-07T04:29:47;46.57;;;29.53;;
2638;SDS011;1329;51.384;7.122;2024-03-07T04:32:14;42.67;;;30.27;;
2638;SDS011;1329;51.384;7.122;2024-03-07T04:34:42;43.77;;;29.30;;
2638;SDS011;1329;51.384;7.122;2024-03-07T04:37:11;50.87;;;30.27;;
2638;SDS011;1329;51.384;7.122;2024-03-07T04:39:38;80.03;;;32.00;;
2638;SDS011;1329;51.384;7.122;2024-03-07T04:42:05;39.37;;;30.10;;
2638;SDS011;1329;51.384;7.122;2024-03-07T04:44:34;46.87;;;29.57;;
2638;SDS011;1329;51.384;7.122;2024-03-07T04:47:03;49.73;;;30.10;;
2638;SDS011;1329;51.384;7.122;2024-03-07T04:49:31;55.70;;;30.83;;
2638;SDS011;1329;51.384;7.122;2024-03-07T04:52:01;47.47;;;29.77;;
2638;SDS011;1329;51.384;7.122;2024-03-07T04:54:31;43.23;;;28.53;;
2638;SDS011;1329;51.384;7.122;2024-03-07T04:56:59;41.97;;;29.83;;
2638;SDS011;1329;51.384;7.122;2024-03-07T04:59:26;37.73;;;29.23;;
2638;SDS011;1329;51.384;7.122;2024-03-07T05:01:54;42.73;;;30.03;;
2638;SDS011;1329;51.384;7.122;2024-03-07T05:04:21;39.07;;;28.87;;
2638;SDS011;1329;51.384;7.122;2024-03-07T05:06:50;47.10;;;29.93;;
2638;SDS011;1329;51.384;7.122;2024-03-07T05:09:17;39.23;;;28.10;;
2638;SDS011;1329;51.384;7.122;2024-03-07T05:11:55;36.27;;;27.27;;
2638;SDS011;1329;51.384;7.122;2024-03-07T05:14:22;36.30;;;27.73;;
2638;SDS011;1329;51.384;7.122;2024-03-07T05:16:50;36.70;;;27.87;;
2638;SDS011;1329;51.384;7.122;2024-03-07T05:19:30;36.77;;;28.50;;
2638;SDS011;1329;51.384;7.122;2024-03-07T05:22:01;40.63;;;28.80;;
2638;SDS011;1329;51.384;7.122;2024-03-07T05:24:30;33.80;;;26.13;;
2638;SDS011;1329;51.384;7.122;2024-03-07T05:26:58;35.10;;;26.97;;
2638;SDS011;1329;51.384;7.122;2024-03-07T05:29:25;33.37;;;25.93;;
2638;SDS011;1329;51.384;7.122;2024-03-07T05:31:55;36.87;;;28.20;;
2638;SDS011;1329;51.384;7.122;2024-03-07T05:34:50;36.87;;;28.73;;
2638;SDS011;1329;51.384;7.122;2024-03-07T05:37:18;38.53;;;28.23;;
2638;SDS011;1329;51.384;7.122;2024-03-07T05:39:46;40.77;;;29.10;;
2638;SDS011;1329;51.384;7.122;2024-03-07T05:42:13;37.03;;;29.13;;
2638;SDS011;1329;51.384;7.122;2024-03-07T05:44:41;38.50;;;28.17;;
2638;SDS011;1329;51.384;7.122;2024-03-07T05:47:08;40.60;;;30.90;;
2638;SDS011;1329;51.384;7.122;2024-03-07T05:49:39;39.87;;;30.83;;
2638;SDS011;1329;51.384;7.122;2024-03-07T05:52:06;40.03;;;29.77;;
2638;SDS011;1329;51.384;7.122;2024-03-07T05:54:34;40.43;;;30.40;;
2638;SDS011;1329;51.384;7.122;2024-03-07T05:57:01;39.43;;;30.10;;
2638;SDS011;1329;51.384;7.122;2024-03-07T05:59:31;38.80;;;29.80;;
2638;SDS011;1329;51.384;7.122;2024-03-07T06:01:57;41.57;;;31.33;;
2638;SDS011;1329;51.384;7.122;2024-03-07T06:04:25;39.03;;;30.90;;
2638;SDS011;1329;51.384;7.122;2024-03-07T06:06:53;41.90;;;31.60;;
2638;SDS011;1329;51.384;7.122;2024-03-07T06:09:20;40.37;;;31.50;;
2638;SDS011;1329;51.384;7.122;2024-03-07T06:11:48;40.10;;;30.93;;
2638;SDS011;1329;51.384;7.122;2024-03-07T06:14:15;40.17;;;30.87;;
2638;SDS011;1329;51.384;7.122;2024-03-07T06:16:43;41.20;;;30.20;;
2638;SDS011;1329;51.384;7.122;2024-03-07T06:19:10;39.47;;;30.00;;
2638;SDS011;1329;51.384;7.122;2024-03-07T06:21:38;40.97;;;31.23;;
2638;SDS011;1329;51.384;7.122;2024-03-07T06:24:07;39.17;;;29.67;;
2638;SDS011;1329;51.384;7.122;2024-03-07T06:26:36;41.13;;;30.73;;
2638;SDS011;1329;51.384;7.122;2024-03-07T06:29:12;39.30;;;29.83;;
2638;SDS011;1329;51.384;7.122;2024-03-07T06:31:41;37.67;;;29.07;;
2638;SDS011;1329;51.384;7.122;2024-03-07T06:34:08;40.73;;;30.50;;
2638;SDS011;1329;51.384;7.122;2024-03-07T06:36:35;40.63;;;30.20;;
2638;SDS011;1329;51.384;7.122;2024-03-07T06:39:03;38.67;;;30.17;;
2638;SDS011;1329;51.384;7.122;2024-03-07T06:41:32;39.23;;;30.10;;
2638;SDS011;1329;51.384;7.122;2024-03-07T06:43:59;41.73;;;31.53;;
2638;SDS011;1329;51.384;7.122;2024-03-07T06:46:26;39.93;;;30.60;;
2638;SDS011;1329;51.384;7.122;2024-03-07T06:48:56;40.20;;;30.90;;
2638;SDS011;1329;51.384;7.122;2024-03-07T06:51:23;41.87;;;30.97;;
2638;SDS011;1329;51.384;7.122;2024-03-07T06:53:50;42.20;;;32.30;;
2638;SDS011;1329;51.384;7.122;2024-03-07T06:56:18;41.50;;;30.17;;
2638;SDS011;1329;51.384;7.122;2024-03-07T06:58:46;37.67;;;30.10;;
2638;SDS011;1329;51.384;7.122;2024-03-07T07:01:13;40.00;;;29.93;;
2638;SDS011;1329;51.384;7.122;2024-03-07T07:03:41;41.87;;;31.33;;
2638;SDS011;1329;51.384;7.122;2024-03-07T07:06:09;43.70;;;31.10;;
2638;SDS011;1329;51.384;7.122;2024-03-07T07:08:36;42.17;;;31.40;;
2638;SDS011;1329;51.384;7.122;2024-03-07T07:11:03;38.50;;;29.60;;
2638;SDS011;1329;51.384;7.122;2024-03-07T07:13:31;39.03;;;30.13;;
2638;SDS011;1329;51.384;7.122;2024-03-07T07:15:59;39.57;;;29.77;;
2638;SDS011;1329;51.384;7.122;2024-03-07T07:18:27;41.97;;;30.53;;
2638;SDS011;1329;51.384;7.122;2024-03-07T07:20:54;40.53;;;30.93;;
2638;SDS011;1329;51.384;7.122;2024-03-07T07:23:23;38.83;;;29.27;;
2638;SDS011;1329;51.384;7.122;2024-03-07T07:25:51;40.20;;;29.87;;
2638;SDS011;1329;51.384;7.122;2024-03-07T07:28:18;38.63;;;29.20;;
2638;SDS011;1329;51.384;7.122;2024-03-07T07:31:04;37.90;;;28.90;;
2638;SDS011;1329;51.384;7.122;2024-03-07T07:33:31;38.33;;;29.87;;
2638;SDS011;1329;51.384;7.122;2024-03-07T07:36:01;37.60;;;28.37;;
2638;SDS011;1329;51.384;7.122;2024-03-07T07:38:46;37.40;;;28.73;;
2638;SDS011;1329;51.384;7.122;2024-03-07T07:41:12;40.90;;;30.10;;
2638;SDS011;1329;51.384;7.122;2024-03-07T07:43:40;38.83;;;28.73;;
2638;SDS011;1329;51.384;7.122;2024-03-07T07:46:08;39.43;;;29.77;;
2638;SDS011;1329;51.384;7.122;2024-03-07T07:48:35;39.23;;;30.60;;
2638;SDS011;1329;51.384;7.122;2024-03-07T07:51:03;38.77;;;30.20;;
2638;SDS011;1329;51.384;7.122;2024-03-07T07:53:31;39.73;;;31.07;;
2638;SDS011;1329;51.384;7.122;2024-03-07T07:55:58;41.33;;;31.47;;
2638;SDS011;1329;51.384;7.122;2024-03-07T07:58:25;43.37;;;31.43;;
2638;SDS011;1329;51.384;7.122;2024-03-07T08:00:52;40.37;;;29.97;;
2638;SDS011;1329;51.384;7.122;2024-03-07T08:03:21;40.73;;;30.67;;
2638;SDS011;1329;51.384;7.122;2024-03-07T08:05:48;40.53;;;30.07;;
2638;SDS011;1329;51.384;7.122;2024-03-07T08:08:15;36.60;;;28.53;;
2638;SDS011;1329;51.384;7.122;2024-03-07T08:10:43;42.13;;;31.13;;
2638;SDS011;1329;51.384;7.122;2024-03-07T08:13:11;41.90;;;29.93;;
2638;SDS011;1329;51.384;7.122;2024-03-07T08:15:38;39.63;;;30.43;;
2638;SDS011;1329;51.384;7.122;2024-03-07T08:18:05;42.07;;;31.60;;
2638;SDS011;1329;51.384;7.122;2024-03-07T08:20:34;43.80;;;32.03;;
2638;SDS011;1329;51.384;7.122;2024-03-07T08:23:14;40.90;;;32.30;;
2638;SDS011;1329;51.384;7.122;2024-03-07T08:25:44;39.40;;;30.13;;
2638;SDS011;1329;51.384;7.122;2024-03-07T08:28:11;38.37;;;29.90;;
2638;SDS011;1329;51.384;7.122;2024-03-07T08:30:38;38.80;;;29.17;;
2638;SDS011;1329;51.384;7.122;2024-03-07T08:33:06;39.53;;;29.70;;
2638;SDS011;1329;51.384;7.122;2024-03-07T08:35:46;38.30;;;29.43;;
2638;SDS011;1329;51.384;7.122;2024-03-07T08:38:15;37.03;;;28.27;;
2638;SDS011;1329;51.384;7.122;2024-03-07T08:40:42;40.07;;;29.67;;
2638;SDS011;1329;51.384;7.122;2024-03-07T08:43:09;35.77;;;28.43;;
2638;SDS011;1329;51.384;7.122;2024-03-07T08:45:39;36.07;;;28.23;;
2638;SDS011;1329;51.384;7.122;2024-03-07T08:48:06;36.57;;;28.23;;
2638;SDS011;1329;51.384;7.122;2024-03-07T08:50:34;35.77;;;28.83;;
2638;SDS011;1329;51.384;7.122;2024-03-07T08:53:03;35.93;;;27.60;;
2638;SDS011;1329;51.384;7.122;2024-03-07T08:55:30;34.17;;;26.87;;
2638;SDS011;1329;51.384;7.122;2024-03-07T08:57:58;35.47;;;27.50;;
2638;SDS011;1329;51.384;7.122;2024-03-07T09:00:25;35.37;;;27.23;;
2638;SDS011;1329;51.384;7.122;2024-03-07T09:02:53;33.97;;;27.77;;
2638;SDS011;1329;51.384;7.122;2024-03-07T09:05:38;33.70;;;27.53;;
2638;SDS011;1329;51.384;7.122;2024-03-07T09:11:01;36.07;;;27.33;;
2638;SDS011;1329;51.384;7.122;2024-03-07T09:13:28;34.60;;;27.07;;
2638;SDS011;1329;51.384;7.122;2024-03-07T09:16:13;34.57;;;27.17;;
2638;SDS011;1329;51.384;7.122;2024-03-07T09:18:43;35.07;;;26.80;;
2638;SDS011;1329;51.384;7.122;2024-03-07T09:21:10;32.40;;;26.70;;
2638;SDS011;1329;51.384;7.122;2024-03-07T09:23:38;33.27;;;26.07;;
2638;SDS011;1329;51.384;7.122;2024-03-07T09:26:05;32.20;;;25.83;;
2638;SDS011;1329;51.384;7.122;2024-03-07T09:28:32;31.87;;;25.33;;
2638;SDS011;1329;51.384;7.122;2024-03-07T09:31:16;32.53;;;26.33;;
2638;SDS011;1329;51.384;7.122;2024-03-07T09:33:44;34.80;;;27.20;;
2638;SDS011;1329;51.384;7.122;2024-03-07T09:36:11;32.80;;;26.70;;
2638;SDS011;1329;51.384;7.122;2024-03-07T09:38:39;30.07;;;24.77;;
2638;SDS011;1329;51.384;7.122;2024-03-07T09:41:06;31.13;;;24.40;;
2638;SDS011;1329;51.384;7.122;2024-03-07T09:43:34;29.07;;;24.00;;
2638;SDS011;1329;51.384;7.122;2024-03-07T09:46:04;32.03;;;24.80;;
2638;SDS011;1329;51.384;7.122;2024-03-07T09:48:32;29.47;;;24.93;;
2638;SDS011;1329;51.384;7.122;2024-03-07T09:50:59;30.80;;;24.57;;
2638;SDS011;1329;51.384;7.122;2024-03-07T09:53:28;35.00;;;26.40;;
2638;SDS011;1329;51.384;7.122;2024-03-07T09:56:01;33.53;;;25.47;;
2638;SDS011;1329;51.384;7.122;2024-03-07T09:58:30;28.90;;;24.10;;
2638;SDS011;1329;51.384;7.122;2024-03-07T10:00:58;31.93;;;25.03;;
2638;SDS011;1329;51.384;7.122;2024-03-07T10:03:29;29.80;;;24.53;;
2638;SDS011;1329;51.384;7.122;2024-03-07T10:05:57;31.83;;;25.43;;
2638;SDS011;1329;51.384;7.122;2024-03-07T10:08:25;30.07;;;23.93;;
2638;SDS011;1329;51.384;7.122;2024-03-07T10:11:12;30.30;;;23.33;;
2638;SDS011;1329;51.384;7.122;2024-03-07T10:13:39;30.93;;;22.83;;
2638;SDS011;1329;51.384;7.122;2024-03-07T10:16:06;27.10;;;22.23;;
2638;SDS011;1329;51.384;7.122;2024-03-07T10:18:41;24.97;;;21.07;;
2638;SDS011;1329;51.384;7.122;2024-03-07T10:21:09;25.90;;;21.00;;
2638;SDS011;1329;51.384;7.122;2024-03-07T10:23:36;26.27;;;20.80;;
2638;SDS011;1329;51.384;7.122;2024-03-07T10:26:04;24.50;;;20.27;;
2638;SDS011;1329;51.384;7.122;2024-03-07T10:28:32;26.10;;;22.03;;
2638;SDS011;1329;51.384;7.122;2024-03-07T10:30:59;23.93;;;20.20;;
2638;SDS011;1329;51.384;7.122;2024-03-07T10:33:28;23.67;;;20.40;;
2638;SDS011;1329;51.384;7.122;2024-03-07T10:35:58;24.63;;;20.87;;
2638;SDS011;1329;51.384;7.122;2024-03-07T10:38:26;23.53;;;20.47;;
2638;SDS011;1329;51.384;7.122;2024-03-07T10:40:53;25.33;;;21.40;;
2638;SDS011;1329;51.384;7.122;2024-03-07T10:43:21;25.00;;;21.47;;
2638;SDS011;1329;51.384;7.122;2024-03-07T10:45:52;25.57;;;21.33;;
2638;SDS011;1329;51.384;7.122;2024-03-07T10:48:21;26.17;;;21.07;;
2638;SDS011;1329;51.384;7.122;2024-03-07T10:50:58;28.57;;;22.47;;
2638;SDS011;1329;51.384;7.122;2024-03-07T10:53:40;29.73;;;23.03;;
2638;SDS011;1329;51.384;7.122;2024-03-07T10:59:19;26.60;;;22.20;;
2638;SDS011;1329;51.384;7.122;2024-03-07T11:02:06;22.90;;;19.97;;
2638;SDS011;1329;51.384;7.122;2024-03-07T11:04:42;23.13;;;20.30;;
2638;SDS011;1329;51.384;7.122;2024-03-07T11:07:10;24.30;;;21.50;;
2638;SDS011;1329;51.384;7.122;2024-03-07T11:09:56;25.00;;;20.40;;
2638;SDS011;1329;51.384;7.122;2024-03-07T11:12:24;24.17;;;20.90;;
2638;SDS011;1329;51.384;7.122;2024-03-07T11:14:53;26.20;;;20.90;;
2638;SDS011;1329;51.384;7.122;2024-03-07T11:17:24;23.60;;;20.50;;
2638;SDS011;1329;51.384;7.122;2024-03-07T11:19:51;23.13;;;20.30;;
2638;SDS011;1329;51.384;7.122;2024-03-07T11:22:30;26.07;;;21.93;;
2638;SDS011;1329;51.384;7.122;2024-03-07T11:28:04;23.03;;;20.63;;
2638;SDS011;1329;51.384;7.122;2024-03-07T11:33:39;22.03;;;19.30;;
2638;SDS011;1329;51.384;7.122;2024-03-07T11:36:08;24.27;;;20.87;;
2638;SDS011;1329;51.384;7.122;2024-03-07T11:38:36;25.27;;;20.17;;
2638;SDS011;1329;51.384;7.122;2024-03-07T11:41:04;23.27;;;20.77;;
2638;SDS011;1329;51.384;7.122;2024-03-07T11:43:33;24.07;;;21.13;;
2638;SDS011;1329;51.384;7.122;2024-03-07T11:46:00;25.53;;;20.87;;
2638;SDS011;1329;51.384;7.122;2024-03-07T11:48:28;23.27;;;20.67;;
2638;SDS011;1329;51.384;7.122;2024-03-07T11:50:57;22.67;;;20.20;;
2638;SDS011;1329;51.384;7.122;2024-03-07T11:53:24;26.40;;;21.53;;
2638;SDS011;1329;51.384;7.122;2024-03-07T11:55:52;25.37;;;21.67;;
2638;SDS011;1329;51.384;7.122;2024-03-07T11:58:20;24.23;;;20.93;;
2638;SDS011;1329;51.384;7.122;2024-03-07T12:01:07;24.40;;;21.07;;
2638;SDS011;1329;51.384;7.122;2024-03-07T12:03:36;22.63;;;20.07;;
2638;SDS011;1329;51.384;7.122;2024-03-07T12:06:32;23.77;;;21.03;;
2638;SDS011;1329;51.384;7.122;2024-03-07T12:09:25;23.13;;;20.67;;
2638;SDS011;1329;51.384;7.122;2024-03-07T12:11:52;23.53;;;21.13;;
2638;SDS011;1329;51.384;7.122;2024-03-07T12:14:19;24.80;;;21.63;;
2638;SDS011;1329;51.384;7.122;2024-03-07T12:16:48;23.23;;;20.73;;
2638;SDS011;1329;51.384;7.122;2024-03-07T12:19:44;21.80;;;19.43;;
2638;SDS011;1329;51.384;7.122;2024-03-07T12:22:51;22.63;;;20.20;;
2638;SDS011;1329;51.384;7.122;2024-03-07T12:25:19;23.13;;;20.03;;
2638;SDS011;1329;51.384;7.122;2024-03-07T12:28:07;21.30;;;19.00;;
2638;SDS011;1329;51.384;7.122;2024-03-07T12:30:47;20.83;;;18.70;;
2638;SDS011;1329;51.384;7.122;2024-03-07T12:33:33;21.40;;;19.20;;
2638;SDS011;1329;51.384;7.122;2024-03-07T12:36:04;21.67;;;19.30;;
2638;SDS011;1329;51.384;7.122;2024-03-07T12:41:22;21.33;;;19.13;;
2638;SDS011;1329;51.384;7.122;2024-03-07T12:44:44;21.20;;;18.70;;
2638;SDS011;1329;51.384;7.122;2024-03-07T12:47:13;20.77;;;18.57;;
2638;SDS011;1329;51.384;7.122;2024-03-07T12:49:41;22.87;;;20.47;;
2638;SDS011;1329;51.384;7.122;2024-03-07T12:52:09;21.37;;;18.93;;
2638;SDS011;1329;51.384;7.122;2024-03-07T12:54:39;21.50;;;18.90;;
2638;SDS011;1329;51.384;7.122;2024-03-07T12:57:13;21.07;;;18.80;;
2638;SDS011;1329;51.384;7.122;2024-03-07T13:00:06;20.03;;;17.83;;
2638;SDS011;1329;51.384;7.122;2024-03-07T13:02:43;19.57;;;16.83;;
2638;SDS011;1329;51.384;7.122;2024-03-07T13:08:05;20.93;;;18.43;;
2638;SDS011;1329;51.384;7.122;2024-03-07T13:13:20;19.07;;;17.07;;
2638;SDS011;1329;51.384;7.122;2024-03-07T13:15:53;18.40;;;16.47;;
2638;SDS011;1329;51.384;7.122;2024-03-07T13:18:44;19.10;;;17.00;;
2638;SDS011;1329;51.384;7.122;2024-03-07T13:21:11;19.53;;;17.30;;
2638;SDS011;1329;51.384;7.122;2024-03-07T13:23:42;19.83;;;17.10;;
2638;SDS011;1329;51.384;7.122;2024-03-07T13:26:11;18.47;;;16.47;;
2638;SDS011;1329;51.384;7.122;2024-03-07T13:28:43;18.30;;;16.40;;
2638;SDS011;1329;51.384;7.122;2024-03-07T13:31:10;17.97;;;15.60;;
2638;SDS011;1329;51.384;7.122;2024-03-07T13:33:37;17.33;;;15.67;;
2638;SDS011;1329;51.384;7.122;2024-03-07T13:36:04;17.93;;;15.37;;
2638;SDS011;1329;51.384;7.122;2024-03-07T13:38:32;17.23;;;15.43;;
2638;SDS011;1329;51.384;7.122;2024-03-07T13:41:00;16.83;;;15.00;;
2638;SDS011;1329;51.384;7.122;2024-03-07T13:43:48;16.43;;;14.73;;
2638;SDS011;1329;51.384;7.122;2024-03-07T13:46:20;15.90;;;14.30;;
2638;SDS011;1329;51.384;7.122;2024-03-07T13:49:09;15.87;;;14.20;;
2638;SDS011;1329;51.384;7.122;2024-03-07T13:51:38;16.70;;;14.27;;
2638;SDS011;1329;51.384;7.122;2024-03-07T13:54:15;14.50;;;13.03;;
2638;SDS011;1329;51.384;7.122;2024-03-07T13:57:01;14.87;;;13.30;;
2638;SDS011;1329;51.384;7.122;2024-03-07T13:59:47;14.23;;;12.13;;
2638;SDS011;1329;51.384;7.122;2024-03-07T14:02:50;12.17;;;10.97;;
2638;SDS011;1329;51.384;7.122;2024-03-07T14:06:00;11.83;;;10.63;;
2638;SDS011;1329;51.384;7.122;2024-03-07T14:21:45;10.10;;;9.10;;
2638;SDS011;1329;51.384;7.122;2024-03-07T14:28:29;9.53;;;8.63;;
2638;SDS011;1329;51.384;7.122;2024-03-07T14:34:47;8.80;;;7.90;;
2638;SDS011;1329;51.384;7.122;2024-03-07T14:37:25;8.30;;;7.50;;
2638;SDS011;1329;51.384;7.122;2024-03-07T14:40:04;8.50;;;7.20;;
2638;SDS011;1329;51.384;7.122;2024-03-07T14:42:36;8.53;;;7.63;;
2638;SDS011;1329;51.384;7.122;2024-03-07T14:45:18;7.73;;;6.97;;
2638;SDS011;1329;51.384;7.122;2024-03-07T14:47:48;8.50;;;7.67;;
2638;SDS011;1329;51.384;7.122;2024-03-07T14:50:18;8.87;;;7.67;;
2638;SDS011;1329;51.384;7.122;2024-03-07T14:52:46;8.60;;;7.43;;
2638;SDS011;1329;51.384;7.122;2024-03-07T14:55:40;8.50;;;7.57;;
2638;SDS011;1329;51.384;7.122;2024-03-07T14:58:08;8.77;;;7.50;;
2638;SDS011;1329;51.384;7.122;2024-03-07T15:00:36;9.37;;;7.57;;
2638;SDS011;1329;51.384;7.122;2024-03-07T15:03:06;8.33;;;7.53;;
2638;SDS011;1329;51.384;7.122;2024-03-07T15:08:26;8.77;;;7.87;;
2638;SDS011;1329;51.384;7.122;2024-03-07T15:10:54;9.10;;;7.47;;
2638;SDS011;1329;51.384;7.122;2024-03-07T15:13:33;8.73;;;7.57;;
2638;SDS011;1329;51.384;7.122;2024-03-07T15:19:26;8.93;;;7.53;;
2638;SDS011;1329;51.384;7.122;2024-03-07T15:25:05;8.97;;;7.90;;
2638;SDS011;1329;51.384;7.122;2024-03-07T15:27:38;9.07;;;7.93;;
2638;SDS011;1329;51.384;7.122;2024-03-07T15:30:06;9.07;;;8.13;;
2638;SDS011;1329;51.384;7.122;2024-03-07T15:32:39;9.57;;;8.57;;
2638;SDS011;1329;51.384;7.122;2024-03-07T15:35:07;9.57;;;8.27;;
2638;SDS011;1329;51.384;7.122;2024-03-07T15:37:37;10.67;;;9.03;;
2638;SDS011;1329;51.384;7.122;2024-03-07T15:43:06;11.47;;;9.23;;
2638;SDS011;1329;51.384;7.122;2024-03-07T15:45:45;9.57;;;8.50;;
2638;SDS011;1329;51.384;7.122;2024-03-07T15:48:16;10.00;;;8.77;;
2638;SDS011;1329;51.384;7.122;2024-03-07T15:50:44;11.67;;;9.63;;
2638;SDS011;1329;51.384;7.122;2024-03-07T15:53:11;12.20;;;10.20;;
2638;SDS011;1329;51.384;7.122;2024-03-07T15:55:39;11.27;;;10.07;;
2638;SDS011;1329;51.384;7.122;2024-03-07T15:58:08;12.47;;;11.17;;
2638;SDS011;1329;51.384;7.122;2024-03-07T16:00:35;12.90;;;11.03;;
2638;SDS011;1329;51.384;7.122;2024-03-07T16:03:04;15.23;;;11.60;;
2638;SDS011;1329;51.384;7.122;2024-03-07T16:05:33;13.93;;;12.23;;